Time;durP1;ratioP1;P1;durP2;ratioP2;P2;SDS_P1;SDS_P2;PMS_P1;PMS_P2;Temp;Humidity;BMP_temperature;BMP_pressure;BME280_temperature;BME280_humidity;BME280_pressure;Samples;Min_cycle;Max_cycle;Signal;HPM_P1;HPM_P2
2023/06/23 00:00:20;;;;;;;12.27;7.82;;;;;;;16.41;100.00;101603.91;5071603;28;20098;-59
2023/06/23 00:02:49;;;;;;;13.52;8.90;;;;;;;16.42;100.00;101602.94;5072459;28;20036;-64
2023/06/23 00:05:20;;;;;;;13.35;9.13;;;;;;;16.45;100.00;101600.03;5075678;28;20098;-65
2023/06/23 00:07:49;;;;;;;14.30;8.73;;;;;;;16.46;100.00;101599.06;5075666;28;20400;-65
2023/06/23 00:10:17;;;;;;;11.88;8.75;;;;;;;16.44;100.00;101606.31;5076079;28;20078;-65
2023/06/23 00:12:45;;;;;;;13.80;8.40;;;;;;;16.41;100.00;101603.91;5075036;28;20114;-64
2023/06/23 00:15:17;;;;;;;12.73;8.77;;;;;;;16.45;100.00;101605.34;5075390;28;20579;-64
2023/06/23 00:17:50;;;;;;;11.73;8.35;;;;;;;16.42;100.00;101605.59;5074971;28;20079;-64
2023/06/23 00:20:19;;;;;;;;;;;;;;;16.39;100.00;101604.00;5108550;28;20135;-64
2023/06/23 00:22:47;;;;;;;16.75;9.20;;;;;;;16.41;100.00;101605.72;5076021;28;19920;-64
2023/06/23 00:25:18;;;;;;;13.27;8.23;;;;;;;16.37;100.00;101611.28;5075532;28;20048;-63
2023/06/23 00:27:46;;;;;;;11.60;8.35;;;;;;;16.37;100.00;101605.09;5074403;28;20049;-64
2023/06/23 00:30:15;;;;;;;15.10;8.10;;;;;;;16.41;100.00;101609.19;5075945;28;20048;-64
2023/06/23 00:32:44;;;;;;;13.13;8.40;;;;;;;16.43;100.00;101614.38;5074979;28;20528;-66
2023/06/23 00:35:14;;;;;;;13.43;8.50;;;;;;;16.39;100.00;101622.59;5073926;28;20511;-65
2023/06/23 00:37:44;;;;;;;10.60;7.85;;;;;;;16.39;100.00;101633.22;5075274;28;20049;-65
2023/06/23 00:40:12;;;;;;;12.27;8.50;;;;;;;16.41;100.00;101630.44;5075488;28;20122;-64
2023/06/23 00:42:48;;;;;;;12.88;8.50;;;;;;;16.34;100.00;101631.88;5073784;28;20055;-60
2023/06/23 00:45:16;;;;;;;12.85;8.13;;;;;;;16.32;100.00;101637.31;5070062;28;20127;-60
2023/06/23 00:47:46;;;;;;;13.45;9.43;;;;;;;16.22;100.00;101647.81;5070641;28;20056;-59
2023/06/23 00:50:16;;;;;;;12.73;7.97;;;;;;;16.28;100.00;101643.81;5071379;28;20044;-60
2023/06/23 00:52:49;;;;;;;13.43;8.90;;;;;;;16.26;100.00;101647.56;5071263;28;20061;-59
2023/06/23 00:55:19;;;;;;;12.45;8.10;;;;;;;16.23;100.00;101643.31;5071390;28;20048;-59
2023/06/23 00:57:48;;;;;;;13.77;8.48;;;;;;;16.23;100.00;101646.81;5073358;28;20365;-64
2023/06/23 01:00:19;;;;;;;12.43;8.75;;;;;;;16.26;100.00;101653.69;5073778;28;20072;-65
2023/06/23 01:02:50;;;;;;;13.15;9.07;;;;;;;16.21;100.00;101650.53;5075049;28;20438;-64
2023/06/23 01:05:20;;;;;;;11.02;7.65;;;;;;;16.17;100.00;101647.28;5075478;28;20128;-64
2023/06/23 01:07:57;;;;;;;12.18;8.13;;;;;;;16.17;100.00;101655.25;5074852;28;20079;-64
2023/06/23 01:10:33;;;;;;;11.48;7.90;;;;;;;16.09;100.00;101665.63;5074897;28;20040;-64
2023/06/23 01:13:06;;;;;;;12.00;8.13;;;;;;;16.09;100.00;101672.69;5074272;28;20056;-64
2023/06/23 01:15:38;;;;;;;13.93;8.48;;;;;;;16.05;100.00;101682.72;5074462;28;20457;-64
2023/06/23 01:18:14;;;;;;;10.75;8.32;;;;;;;16.03;100.00;101695.25;5107194;28;20055;-64
2023/06/23 01:20:46;;;;;;;13.10;8.05;;;;;;;16.04;100.00;101697.78;5074848;28;20466;-65
2023/06/23 01:23:35;;;;;;;15.00;8.68;;;;;;;15.99;100.00;101697.31;5074181;28;20044;-65
2023/06/23 01:26:15;;;;;;;13.32;8.68;;;;;;;15.97;100.00;101696.56;5074488;28;20479;-65
2023/06/23 01:28:53;;;;;;;12.20;8.30;;;;;;;15.98;100.00;101694.72;5074394;28;20411;-64
2023/06/23 01:31:31;;;;;;;11.70;7.97;;;;;;;15.80;100.00;101700.47;5073290;28;20503;-64
2023/06/23 01:34:06;;;;;;;13.43;7.55;;;;;;;15.86;100.00;101701.81;5074278;28;20376;-64
2023/06/23 01:36:41;;;;;;;14.52;8.68;;;;;;;15.80;100.00;101710.22;5074146;28;20143;-65
2023/06/23 01:39:13;;;;;;;11.55;8.55;;;;;;;15.74;100.00;101700.03;5073905;28;20094;-64
2023/06/23 01:41:46;;;;;;;15.73;9.40;;;;;;;15.71;100.00;101707.25;5074427;28;20500;-64
2023/06/23 01:44:17;;;;;;;12.90;8.70;;;;;;;15.76;100.00;101711.38;5074781;28;20484;-65
2023/06/23 01:46:51;;;;;;;16.13;9.40;;;;;;;15.64;100.00;101711.31;5074563;28;20094;-60
2023/06/23 01:49:27;;;;;;;13.27;10.00;;;;;;;15.66;100.00;101714.69;5070217;28;20078;-59
2023/06/23 01:51:56;;;;;;;14.27;9.85;;;;;;;15.65;100.00;101713.00;5069569;28;20134;-60
2023/06/23 01:54:30;;;;;;;13.85;10.15;;;;;;;15.63;100.00;101720.22;5072077;28;20064;-64
2023/06/23 01:57:00;;;;;;;14.20;9.90;;;;;;;15.58;100.00;101727.66;5073540;28;20101;-64
2023/06/23 01:59:34;;;;;;;17.73;10.38;;;;;;;15.57;100.00;101723.34;5073270;28;20044;-64
2023/06/23 02:02:03;;;;;;;13.85;10.32;;;;;;;15.63;100.00;101725.53;5073328;28;20050;-64
2023/06/23 02:04:33;;;;;;;14.43;10.45;;;;;;;15.61;100.00;101722.16;5073301;28;20106;-64
2023/06/23 02:07:03;;;;;;;14.05;10.63;;;;;;;15.61;100.00;101729.25;5073413;28;20495;-60
2023/06/23 02:09:38;;;;;;;13.50;10.25;;;;;;;15.57;100.00;101733.94;5069926;28;20656;-60
2023/06/23 02:12:07;;;;;;;13.50;10.93;;;;;;;15.52;100.00;101731.59;5072926;28;20045;-60
2023/06/23 02:14:38;;;;;;;13.80;10.93;;;;;;;15.49;100.00;101731.81;5072151;28;20041;-63
2023/06/23 02:17:10;;;;;;;16.80;11.27;;;;;;;15.54;100.00;101737.66;5073587;28;20098;-64
2023/06/23 02:19:41;;;;;;;16.27;10.52;;;;;;;15.48;100.00;101743.38;5073371;28;20055;-65
2023/06/23 02:22:11;;;;;;;13.68;10.52;;;;;;;15.48;100.00;101742.56;5073407;28;20058;-64
2023/06/23 02:24:40;;;;;;;14.38;10.60;;;;;;;15.53;100.00;101738.59;5073733;28;20036;-63
2023/06/23 02:27:09;;;;;;;14.25;10.45;;;;;;;15.48;100.00;101732.78;5072892;28;20048;-64
2023/06/23 02:29:41;;;;;;;15.00;10.50;;;;;;;15.40;100.00;101744.91;5072832;28;20048;-63
2023/06/23 02:32:17;;;;;;;15.73;11.15;;;;;;;15.44;100.00;101746.38;5072950;28;20389;-64
2023/06/23 02:34:46;;;;;;;16.63;11.68;;;;;;;15.42;100.00;101756.22;5073300;28;20076;-64
2023/06/23 02:37:18;;;;;;;18.05;13.13;;;;;;;15.44;100.00;101756.97;5071537;28;20044;-63
2023/06/23 02:39:52;;;;;;;15.27;12.27;;;;;;;15.41;100.00;101765.16;5072796;28;20480;-63
2023/06/23 02:42:24;;;;;;;16.25;12.60;;;;;;;15.40;100.00;101763.44;5071276;28;20446;-63
2023/06/23 02:45:02;;;;;;;17.25;12.57;;;;;;;15.36;100.00;101762.81;5073400;28;20415;-63
2023/06/23 02:47:38;;;;;;;18.60;12.48;;;;;;;15.38;100.00;101764.41;5073350;28;20037;-63
2023/06/23 02:50:12;;;;;;;16.30;11.68;;;;;;;15.37;100.00;101777.78;5072945;28;20056;-64
2023/06/23 02:52:45;;;;;;;17.52;11.95;;;;;;;15.38;100.00;101772.34;5071551;28;20571;-63
2023/06/23 02:55:19;;;;;;;17.00;12.02;;;;;;;15.42;100.00;101783.59;5072767;28;20083;-62
2023/06/23 02:57:51;;;;;;;16.92;12.65;;;;;;;15.40;100.00;101789.97;5072776;28;20132;-63
2023/06/23 03:00:23;;;;;;;14.85;11.48;;;;;;;15.40;100.00;101795.25;5073132;28;20135;-63
2023/06/23 03:02:56;;;;;;;14.93;11.60;;;;;;;15.37;100.00;101798.97;5072778;28;20074;-63
2023/06/23 03:05:26;;;;;;;14.95;11.60;;;;;;;15.33;100.00;101803.63;5073170;28;20495;-63
2023/06/23 03:07:55;;;;;;;15.75;11.70;;;;;;;15.30;100.00;101803.84;5072946;28;20052;-59
2023/06/23 03:10:23;;;;;;;16.27;11.48;;;;;;;15.27;100.00;101805.84;5072358;28;20127;-59
2023/06/23 03:12:51;;;;;;;15.55;11.75;;;;;;;15.30;100.00;101806.50;5070618;28;20102;-59
2023/06/23 03:15:21;;;;;;;15.52;11.77;;;;;;;15.31;100.00;101810.00;5068641;28;20136;-59
2023/06/23 03:17:58;;;;;;;16.98;12.40;;;;;;;15.30;100.00;101817.09;5068878;28;20044;-60
2023/06/23 03:20:34;;;;;;;18.17;13.15;;;;;;;15.27;100.00;101830.56;5068669;28;20049;-58
2023/06/23 03:23:04;;;;;;;;;;;;;;;15.29;100.00;101831.31;5068718;28;20064;-58
2023/06/23 03:25:33;;;;;;;15.05;12.02;;;;;;;15.29;100.00;101833.94;5068095;28;20303;-58
2023/06/23 03:28:03;;;;;;;18.27;13.73;;;;;;;15.27;100.00;101838.53;5072515;28;20496;-58
2023/06/23 03:30:40;;;;;;;17.75;13.60;;;;;;;15.27;100.00;101843.81;5072405;28;20053;-59
2023/06/23 03:33:13;;;;;;;22.67;14.95;;;;;;;15.27;100.00;101849.13;5070070;28;20114;-61
2023/06/23 03:35:43;;;;;;;18.00;14.07;;;;;;;15.32;100.00;101848.78;5072950;28;20044;-60
2023/06/23 03:38:18;;;;;;;18.73;14.27;;;;;;;15.30;100.00;101848.91;5070903;28;20051;-58
2023/06/23 03:40:51;;;;;;;17.92;14.85;;;;;;;15.31;100.00;101855.91;5074896;28;20549;-59
2023/06/23 03:43:28;;;;;;;17.35;14.50;;;;;;;15.35;100.00;101859.16;5075823;28;20048;-59
2023/06/23 03:46:02;;;;;;;20.33;14.50;;;;;;;15.36;100.00;101861.72;5070690;28;20052;-59
2023/06/23 03:48:33;;;;;;;20.15;14.95;;;;;;;15.28;100.00;101860.56;5073859;28;20102;-59
2023/06/23 03:51:04;;;;;;;19.42;15.00;;;;;;;15.33;100.00;101861.94;5074212;28;20040;-59
2023/06/23 03:53:33;;;;;;;19.83;15.85;;;;;;;15.34;100.00;101863.63;5072007;28;20099;-59
2023/06/23 03:56:03;;;;;;;24.67;18.55;;;;;;;15.27;100.00;101861.50;5072722;28;20127;-59
2023/06/23 03:58:32;;;;;;;21.85;17.80;;;;;;;15.29;100.00;101867.56;5075910;28;20120;-59
2023/06/23 04:01:04;;;;;;;22.48;17.15;;;;;;;15.25;100.00;101868.72;5076004;28;20044;-63
2023/06/23 04:03:34;;;;;;;22.80;18.10;;;;;;;15.22;100.00;101869.78;5076317;28;20044;-62
2023/06/23 04:06:06;;;;;;;20.67;16.83;;;;;;;15.23;100.00;101862.66;5075903;28;20090;-63
2023/06/23 04:09:04;;;;;;;24.40;19.80;;;;;;;15.23;100.00;101871.50;5074809;28;20060;-63
2023/06/23 04:11:37;;;;;;;27.73;20.35;;;;;;;15.21;100.00;101870.72;5072212;28;20052;-59
2023/06/23 04:14:06;;;;;;;27.40;21.45;;;;;;;15.19;100.00;101868.19;5071551;28;20110;-59
2023/06/23 04:16:40;;;;;;;29.13;22.25;;;;;;;15.21;100.00;101873.38;5070646;28;20045;-61
2023/06/23 04:19:10;;;;;;;31.77;24.17;;;;;;;15.22;100.00;101880.38;5073060;28;20106;-63
2023/06/23 04:21:41;;;;;;;32.92;24.65;;;;;;;15.24;100.00;101878.47;5075675;28;20044;-63
2023/06/23 04:24:11;;;;;;;30.95;24.20;;;;;;;15.26;100.00;101875.72;5072920;28;20041;-59
2023/06/23 04:26:42;;;;;;;32.15;25.05;;;;;;;15.28;100.00;101873.81;5075456;28;20052;-64
2023/06/23 04:29:13;;;;;;;31.67;24.55;;;;;;;15.31;100.00;101877.09;5075333;28;20053;-64
2023/06/23 04:31:45;;;;;;;32.17;25.55;;;;;;;15.31;100.00;101890.34;5074811;28;20044;-63
2023/06/23 04:34:13;;;;;;;31.17;24.05;;;;;;;15.35;100.00;101898.91;5075913;28;20062;-63
2023/06/23 04:36:46;;;;;;;32.85;24.15;;;;;;;15.40;100.00;101901.28;5074624;28;20064;-63
2023/06/23 04:39:21;;;;;;;30.85;23.92;;;;;;;15.41;100.00;101902.97;5074985;28;20056;-64
2023/06/23 04:42:00;;;;;;;35.22;27.73;;;;;;;15.41;100.00;101905.63;5075889;28;20056;-63
2023/06/23 04:44:30;;;;;;;34.42;28.27;;;;;;;15.42;100.00;101907.31;5075275;28;20048;-64
2023/06/23 04:47:04;;;;;;;34.03;27.20;;;;;;;15.43;100.00;101909.00;5075242;28;20057;-64
2023/06/23 04:49:34;;;;;;;41.20;29.05;;;;;;;15.44;100.00;101919.50;5075186;28;20114;-64
2023/06/23 04:52:06;;;;;;;39.80;30.20;;;;;;;15.49;100.00;101935.94;5075224;28;20403;-64
2023/06/23 04:54:41;;;;;;;39.17;28.90;;;;;;;15.56;100.00;101936.38;5074822;28;20152;-63
2023/06/23 04:57:19;;;;;;;39.13;28.92;;;;;;;15.65;100.00;101945.47;5074990;28;20052;-64
2023/06/23 04:59:52;;;;;;;41.22;29.75;;;;;;;15.71;100.00;101951.22;5074728;28;20052;-64
2023/06/23 05:02:25;;;;;;;44.15;31.83;;;;;;;15.77;100.00;101949.09;5073610;28;20044;-64
2023/06/23 05:04:55;;;;;;;42.95;30.73;;;;;;;15.79;100.00;101947.16;5075654;28;20479;-63
2023/06/23 05:07:25;;;;;;;47.13;32.90;;;;;;;15.82;100.00;101947.84;5074533;28;20052;-64
2023/06/23 05:09:55;;;;;;;41.00;32.08;;;;;;;15.89;100.00;101953.56;5074767;28;20048;-63
2023/06/23 05:12:26;;;;;;;40.70;31.02;;;;;;;15.95;100.00;101963.75;5074637;28;20075;-63
2023/06/23 05:14:56;;;;;;;45.25;32.25;;;;;;;15.98;100.00;101952.94;5073530;28;20055;-64
2023/06/23 05:17:28;;;;;;;41.97;31.58;;;;;;;16.03;100.00;101956.09;5075066;28;20487;-64
2023/06/23 05:19:58;;;;;;;41.13;30.73;;;;;;;16.10;100.00;101956.53;5074956;28;20048;-63
2023/06/23 05:22:28;;;;;;;38.88;31.50;;;;;;;16.18;100.00;101956.81;5074610;28;20112;-65
2023/06/23 05:25:03;;;;;;;42.25;31.15;;;;;;;16.19;100.00;101950.53;5074376;28;20048;-64
2023/06/23 05:27:35;;;;;;;43.13;31.20;;;;;;;16.26;100.00;101956.25;5074533;28;20055;-64
2023/06/23 05:30:06;;;;;;;38.53;30.00;;;;;;;16.35;100.00;101958.25;5074409;28;20048;-65
2023/06/23 05:32:40;;;;;;;37.22;29.92;;;;;;;16.42;100.00;101952.53;5074467;28;20068;-64
2023/06/23 05:35:10;;;;;;;38.70;29.77;;;;;;;16.50;100.00;101952.81;5074180;28;20381;-64
2023/06/23 05:37:40;;;;;;;37.28;29.60;;;;;;;16.54;100.00;101960.41;5074691;28;20495;-65
2023/06/23 05:40:12;;;;;;;36.53;28.80;;;;;;;16.58;100.00;101962.84;5074388;28;20055;-65
2023/06/23 05:42:41;;;;;;;35.75;28.00;;;;;;;16.64;100.00;101973.88;5074216;28;20041;-65
2023/06/23 05:45:13;;;;;;;37.22;29.20;;;;;;;16.59;100.00;101981.31;5074018;28;20072;-65
2023/06/23 05:47:50;;;;;;;36.78;28.70;;;;;;;16.62;100.00;101973.16;5074703;28;20115;-65
2023/06/23 05:50:24;;;;;;;36.30;28.05;;;;;;;16.69;100.00;101971.72;5074698;28;20055;-65
2023/06/23 05:52:58;;;;;;;39.53;28.17;;;;;;;16.76;100.00;101973.94;5074018;28;20102;-65
2023/06/23 05:55:29;;;;;;;38.20;28.13;;;;;;;16.84;100.00;101974.22;5106848;28;20052;-65
2023/06/23 05:58:03;;;;;;;35.67;27.48;;;;;;;16.93;100.00;101978.88;5074184;28;20072;-66
2023/06/23 06:00:38;;;;;;;34.15;27.33;;;;;;;17.03;100.00;101984.38;5074151;28;20076;-66
2023/06/23 06:03:14;;;;;;;36.97;28.58;;;;;;;17.03;100.00;101984.38;5073916;28;20048;-66
2023/06/23 06:05:47;;;;;;;36.33;27.60;;;;;;;17.12;100.00;101991.63;5072688;28;20105;-66
2023/06/23 06:08:16;;;;;;;35.28;27.67;;;;;;;17.18;100.00;102001.81;5073840;28;20400;-65
2023/06/23 06:10:45;;;;;;;33.75;27.20;;;;;;;17.21;100.00;102003.41;5073590;28;20053;-66
2023/06/23 06:13:15;;;;;;;36.22;27.83;;;;;;;17.23;100.00;101998.81;5073789;28;20060;-67
2023/06/23 06:15:46;;;;;;;32.33;25.77;;;;;;;17.43;100.00;102005.28;5070620;28;20250;-62
2023/06/23 06:18:18;;;;;;;36.72;28.08;;;;;;;17.54;100.00;102009.78;5066964;28;20411;-62
2023/06/23 06:20:49;;;;;;;32.90;26.42;;;;;;;17.71;100.00;102019.09;5070225;28;20071;-61
2023/06/23 06:23:19;;;;;;;30.73;24.98;;;;;;;17.77;100.00;102020.47;5068665;28;20044;-62
2023/06/23 06:25:54;;;;;;;30.42;24.85;;;;;;;17.77;100.00;102023.13;5071933;28;20115;-68
2023/06/23 06:28:25;;;;;;;33.45;26.08;;;;;;;17.82;100.00;102023.59;5071649;28;20415;-67
2023/06/23 06:30:54;;;;;;;30.35;23.70;;;;;;;18.02;100.00;102030.91;5073660;28;20048;-67
2023/06/23 06:33:25;;;;;;;31.17;24.23;;;;;;;18.17;100.00;102038.69;5073730;28;20058;-67
2023/06/23 06:35:55;;;;;;;32.03;24.42;;;;;;;18.30;100.00;102039.41;5073275;28;20047;-68
2023/06/23 06:38:24;;;;;;;30.83;23.58;;;;;;;18.35;100.00;102037.22;5071286;28;20583;-64
2023/06/23 06:40:54;;;;;;;31.25;22.80;;;;;;;18.45;100.00;102039.13;5069725;28;20511;-63
2023/06/23 06:43:22;;;;;;;30.30;24.23;;;;;;;18.52;100.00;102043.84;5068482;28;20131;-62
2023/06/23 06:45:52;;;;;;;30.38;22.95;;;;;;;18.56;100.00;102052.47;5069047;28;20051;-63
2023/06/23 06:48:23;;;;;;;27.70;22.38;;;;;;;18.62;100.00;102051.13;5068702;28;20403;-63
2023/06/23 06:50:54;;;;;;;28.73;23.08;;;;;;;18.70;100.00;102060.16;5069479;28;20131;-63
2023/06/23 06:53:23;;;;;;;29.25;23.75;;;;;;;18.95;100.00;102060.91;5068072;28;20061;-63
2023/06/23 06:55:52;;;;;;;28.00;22.45;;;;;;;19.06;100.00;102066.19;5069578;28;20053;-62
2023/06/23 06:58:20;;;;;;;25.95;21.70;;;;;;;19.21;100.00;102064.06;5067892;28;20051;-63
2023/06/23 07:00:49;;;;;;;28.83;22.70;;;;;;;19.30;100.00;102054.44;5068675;28;20043;-62
2023/06/23 07:03:18;;;;;;;25.05;19.75;;;;;;;19.47;100.00;102062.84;5068179;28;20234;-62
2023/06/23 07:05:46;;;;;;;27.15;22.42;;;;;;;19.64;100.00;102059.63;5069659;28;20072;-62
2023/06/23 07:08:16;;;;;;;26.63;21.67;;;;;;;19.82;100.00;102072.41;5068329;28;20201;-62
2023/06/23 07:10:44;;;;;;;26.83;20.98;;;;;;;19.88;100.00;102072.72;5069366;28;20556;-61
2023/06/23 07:13:12;;;;;;;24.80;18.98;;;;;;;19.90;100.00;102078.78;5068259;28;20515;-63
2023/06/23 07:15:40;;;;;;;24.08;19.00;;;;;;;19.93;100.00;102083.88;5068904;28;20044;-62
2023/06/23 07:18:08;;;;;;;21.00;16.70;;;;;;;20.07;100.00;102081.84;5067829;28;20470;-63
2023/06/23 07:20:39;;;;;;;20.38;16.20;;;;;;;20.22;100.00;102074.28;5069206;28;20060;-63
2023/06/23 07:23:08;;;;;;;18.83;15.48;;;;;;;20.41;100.00;102081.53;5068238;28;20413;-63
2023/06/23 07:25:38;;;;;;;21.38;15.85;;;;;;;20.59;100.00;102079.09;5069447;28;20484;-64
2023/06/23 07:28:06;;;;;;;17.33;13.65;;;;;;;20.72;100.00;102085.09;5069042;28;20048;-64
2023/06/23 07:30:34;;;;;;;19.77;14.95;;;;;;;20.83;100.00;102086.75;5068322;28;20098;-63
2023/06/23 07:33:03;;;;;;;17.67;14.10;;;;;;;21.01;100.00;102088.78;5067990;28;20049;-63
2023/06/23 07:35:31;;;;;;;18.17;13.88;;;;;;;21.25;100.00;102094.56;5068806;28;20072;-63
2023/06/23 07:37:59;;;;;;;18.45;14.38;;;;;;;21.18;100.00;102093.44;5068291;28;20504;-63
2023/06/23 07:40:28;;;;;;;17.73;13.35;;;;;;;21.36;100.00;102095.44;5068523;28;20057;-63
2023/06/23 07:42:57;;;;;;;17.95;13.15;;;;;;;21.46;100.00;102096.28;5068456;28;20810;-63
2023/06/23 07:45:25;;;;;;;14.55;11.45;;;;;;;21.55;100.00;102094.59;5066735;28;20051;-64
2023/06/23 07:47:53;;;;;;;15.93;10.88;;;;;;;21.67;100.00;102093.47;5067919;28;20044;-62
2023/06/23 07:50:21;;;;;;;15.90;12.00;;;;;;;21.88;100.00;102087.09;5068845;28;20090;-62
2023/06/23 07:52:52;;;;;;;14.60;11.05;;;;;;;22.05;100.00;102083.66;5069695;28;20116;-64
2023/06/23 07:55:21;;;;;;;13.52;9.93;;;;;;;22.32;100.00;102084.69;5071151;28;20052;-68
2023/06/23 07:57:49;;;;;;;13.75;10.52;;;;;;;22.36;100.00;102083.44;5071775;28;20047;-64
2023/06/23 08:00:19;;;;;;;13.68;9.98;;;;;;;22.47;100.00;102092.25;5070967;28;20044;-63
2023/06/23 08:02:47;;;;;;;14.48;10.82;;;;;;;22.51;100.00;102089.16;5068488;28;20054;-64
2023/06/23 08:05:16;;;;;;;13.32;9.70;;;;;;;22.55;100.00;102092.38;5069073;28;20056;-64
2023/06/23 08:07:45;;;;;;;12.23;9.05;;;;;;;22.69;100.00;102088.38;5070116;28;20068;-65
2023/06/23 08:10:13;;;;;;;12.60;9.65;;;;;;;22.92;100.00;102088.78;5069988;28;20049;-64
2023/06/23 08:12:41;;;;;;;11.60;8.60;;;;;;;23.13;100.00;102102.75;5070378;28;20051;-66
2023/06/23 08:15:10;;;;;;;12.00;9.45;;;;;;;23.16;100.00;102100.78;5072273;28;20056;-64
2023/06/23 08:17:40;;;;;;;13.77;10.15;;;;;;;23.22;100.00;102103.69;5073129;28;20040;-64
2023/06/23 08:20:09;;;;;;;13.95;9.95;;;;;;;23.17;100.00;102100.63;5073011;28;20049;-63
2023/06/23 08:22:39;;;;;;;10.88;8.23;;;;;;;23.46;100.00;102100.41;5073407;28;20165;-64
2023/06/23 08:25:08;;;;;;;13.50;9.68;;;;;;;23.65;100.00;102098.53;5073433;28;20399;-64
2023/06/23 08:27:37;;;;;;;11.27;8.27;;;;;;;23.94;100.00;102100.94;5071914;28;20045;-62
2023/06/23 08:30:06;;;;;;;13.63;9.32;;;;;;;23.92;100.00;102102.94;5071436;28;20559;-63
2023/06/23 08:32:35;;;;;;;12.02;8.90;;;;;;;24.11;100.00;102107.25;5072433;28;20044;-64
2023/06/23 08:35:05;;;;;;;12.10;8.38;;;;;;;24.20;100.00;102107.28;5074942;28;20078;-62
2023/06/23 08:37:33;;;;;;;11.48;8.15;;;;;;;24.22;100.00;102111.50;5073429;28;20056;-63
2023/06/23 08:40:01;;;;;;;11.55;8.20;;;;;;;24.49;100.00;102112.31;5074628;28;20047;-63
2023/06/23 08:42:30;;;;;;;12.07;8.25;;;;;;;24.67;100.00;102109.56;5071117;28;20057;-62
2023/06/23 08:45:03;;;;;;;11.27;6.80;;;;;;;24.61;100.00;102115.53;5073058;28;20127;-65
2023/06/23 08:47:36;;;;;;;10.20;7.15;;;;;;;24.50;100.00;102115.84;5075318;28;20041;-64
2023/06/23 08:50:09;;;;;;;8.70;5.75;;;;;;;24.78;100.00;102120.00;5072037;28;20051;-63
2023/06/23 08:52:39;;;;;;;9.80;6.18;;;;;;;24.72;100.00;102123.38;5069597;28;20568;-65
2023/06/23 08:55:11;;;;;;;10.10;6.75;;;;;;;24.74;100.00;102123.19;5071572;28;20068;-63
2023/06/23 08:57:39;;;;;;;10.07;6.00;;;;;;;24.91;100.00;102116.88;5074369;28;20446;-64
2023/06/23 09:00:09;;;;;;;9.98;6.30;;;;;;;24.99;100.00;102124.09;5074781;28;20068;-64
2023/06/23 09:02:37;;;;;;;8.07;4.78;;;;;;;25.34;100.00;102124.88;5074879;28;20427;-64
2023/06/23 09:05:07;;;;;;;7.03;4.65;;;;;;;25.62;100.00;102127.25;5074892;28;20048;-65
2023/06/23 09:07:35;;;;;;;7.57;4.32;;;;;;;25.60;100.00;102129.25;5073261;28;20454;-64
2023/06/23 09:10:04;;;;;;;6.93;4.05;;;;;;;25.51;100.00;102139.19;5075117;28;20117;-65
2023/06/23 09:12:33;;;;;;;8.07;4.68;;;;;;;25.41;100.00;102139.34;5073393;28;20127;-64
2023/06/23 09:15:03;;;;;;;8.55;4.47;;;;;;;25.81;100.00;102137.66;5074499;28;20056;-65
2023/06/23 09:17:32;;;;;;;8.02;4.57;;;;;;;25.88;100.00;102137.81;5073658;28;20114;-64
2023/06/23 09:20:03;;;;;;;7.95;4.53;;;;;;;26.15;100.00;102141.16;5074619;28;20059;-64
2023/06/23 09:22:34;;;;;;;9.30;4.40;;;;;;;26.11;100.00;102143.38;5074335;28;20079;-64
2023/06/23 09:25:02;;;;;;;6.65;4.18;;;;;;;26.13;100.00;102151.28;5073884;28;20059;-63
2023/06/23 09:27:41;;;;;;;7.85;4.85;;;;;;;26.56;100.00;102154.53;5074073;28;20036;-64
2023/06/23 09:30:09;;;;;;;6.72;3.85;;;;;;;26.73;100.00;102158.00;5075266;28;20479;-61
2023/06/23 09:32:38;;;;;;;5.65;3.50;;;;;;;26.87;100.00;102159.13;5074184;28;20049;-62
2023/06/23 09:35:08;;;;;;;6.47;3.20;;;;;;;26.49;99.44;102153.53;5074153;28;20492;-64
2023/06/23 09:37:37;;;;;;;6.68;3.78;;;;;;;26.65;100.00;102155.31;5074273;28;20040;-63
2023/06/23 09:40:14;;;;;;;6.30;3.78;;;;;;;26.86;100.00;102156.59;5074324;28;20040;-63
2023/06/23 09:42:44;;;;;;;6.15;3.63;;;;;;;27.11;100.00;102151.91;5074135;28;20059;-65
2023/06/23 09:45:17;;;;;;;7.30;4.00;;;;;;;26.99;100.00;102155.00;5073766;28;20040;-64
2023/06/23 09:47:49;;;;;;;8.07;4.30;;;;;;;27.00;100.00;102161.25;5073427;28;20494;-62
2023/06/23 09:50:20;;;;;;;7.50;3.80;;;;;;;26.89;98.41;102159.81;5074358;28;20060;-63
2023/06/23 09:53:01;;;;;;;7.88;3.72;;;;;;;27.08;100.00;102169.31;5074520;28;20469;-64
2023/06/23 09:55:30;;;;;;;6.38;3.60;;;;;;;27.53;100.00;102164.16;5074669;28;20417;-62
2023/06/23 09:57:59;;;;;;;6.93;3.80;;;;;;;27.63;95.43;102170.13;5073922;28;20395;-62
2023/06/23 10:00:30;;;;;;;8.52;3.65;;;;;;;27.57;97.47;102170.00;5073853;28;20097;-65
2023/06/23 10:03:00;;;;;;;6.90;3.85;;;;;;;27.18;95.38;102169.06;5072297;28;20430;-66
2023/06/23 10:05:34;;;;;;;7.63;3.95;;;;;;;27.65;98.45;102176.19;5073818;28;20048;-66
2023/06/23 10:08:08;;;;;;;6.97;3.75;;;;;;;27.61;87.10;102161.38;5073100;28;20385;-68
2023/06/23 10:10:44;;;;;;;8.15;4.30;;;;;;;27.22;88.74;102166.88;5071977;28;20511;-66
2023/06/23 10:13:13;;;;;;;7.80;4.40;;;;;;;27.22;90.31;102167.69;5073677;28;20047;-66
2023/06/23 10:15:43;;;;;;;9.30;4.00;;;;;;;27.37;94.82;102166.97;5072580;28;20044;-67
2023/06/23 10:18:11;;;;;;;7.32;4.13;;;;;;;27.32;96.90;102162.91;5071647;28;20082;-69
2023/06/23 10:20:40;;;;;;;7.90;3.72;;;;;;;27.47;91.38;102164.84;5071927;28;20055;-68
2023/06/23 10:23:13;;;;;;;6.68;3.45;;;;;;;27.15;86.00;102162.16;5069670;28;20523;-70
2023/06/23 10:25:45;;;;;;;6.72;3.35;;;;;;;27.15;87.80;102167.56;5073226;28;20044;-71
2023/06/23 10:28:18;;;;;;;7.53;3.40;;;;;;;27.33;83.70;102164.56;5069649;28;20064;-68
2023/06/23 10:30:47;;;;;;;5.90;3.47;;;;;;;27.70;84.02;102174.81;5068538;28;20143;-60
2023/06/23 10:33:19;;;;;;;6.53;3.75;;;;;;;27.42;80.84;102157.31;5069154;28;20403;-59
2023/06/23 10:35:49;;;;;;;7.35;3.50;;;;;;;27.88;85.76;102172.59;5071975;28;20469;-62
2023/06/23 10:38:22;;;;;;;5.80;3.78;;;;;;;27.98;81.53;102164.25;5072962;28;20040;-61
2023/06/23 10:40:55;;;;;;;7.53;3.67;;;;;;;28.15;81.24;102165.81;5073172;28;20048;-57
2023/06/23 10:43:30;;;;;;;7.55;3.75;;;;;;;28.31;86.90;102155.81;5070824;28;20586;-54
2023/06/23 10:46:57;;;;;;;5.03;3.45;;;;;;;28.90;78.25;102159.50;5086065;27;20598;-59
2023/06/23 10:49:26;;;;;;;8.02;3.88;;;;;;;28.96;75.74;102156.88;5086495;28;20048;-58
2023/06/23 10:51:54;;;;;;;6.78;3.80;;;;;;;28.63;74.39;102157.34;5087590;28;20503;-58
2023/06/23 10:54:30;;;;;;;6.07;3.58;;;;;;;28.81;74.50;102156.91;5085132;28;20052;-58
2023/06/23 10:58:52;;;;;;;6.35;3.90;;;;;;;28.20;69.88;102164.41;5104385;27;20621;-58
2023/06/23 11:01:20;;;;;;;7.28;4.43;;;;;;;28.49;67.62;102164.38;5091708;28;20052;-56
2023/06/23 11:03:52;;;;;;;5.85;3.40;;;;;;;29.06;71.03;102170.09;5086914;28;20070;-56
2023/06/23 11:06:28;;;;;;;6.45;3.65;;;;;;;29.36;67.06;102158.38;5082247;28;20040;-56
2023/06/23 11:08:57;;;;;;;7.55;4.15;;;;;;;29.50;64.82;102160.16;5086655;28;20495;-56
2023/06/23 11:11:33;;;;;;;7.00;3.88;;;;;;;29.50;63.29;102161.00;5086510;28;20044;-55
2023/06/23 11:14:03;;;;;;;6.47;3.20;;;;;;;29.97;66.48;102168.72;5009310;28;79532;-55
2023/06/23 11:16:34;;;;;;;5.32;3.05;;;;;;;30.19;63.61;102158.63;5040460;28;20056;-54
2023/06/23 11:19:03;;;;;;;8.07;3.15;;;;;;;30.09;58.57;102175.25;5016034;28;20798;-53
2023/06/23 11:21:34;;;;;;;5.47;2.55;;;;;;;30.23;60.46;102167.19;5017343;28;20377;-55
2023/06/23 11:24:11;;;;;;;5.63;3.20;;;;;;;30.14;59.06;102172.75;5027740;28;20077;-57
2023/06/23 11:26:43;;;;;;;5.05;2.90;;;;;;;30.22;56.77;102168.25;5029016;28;20052;-56
2023/06/23 11:29:15;;;;;;;5.97;2.90;;;;;;;30.39;55.65;102163.31;5029244;28;20516;-56